Kezdőlap
METAR-TAF:

METAR-TAF

Repülőterek :

Samsun, Törökország

földrajzi szélesség: 41-15-15N, földrajzi hosszúság: 036-34-03E, magasság: 5 m

Jelenlegi meteorológiai megfigyelések

A jelentés 24 perccel ezelõtt készült, 08:50 UTC
Észak-északnyugati szél 6 kt, északnyugati és észak-északkeleti között változik
Hőmérséklet 20°C
Páratartalom 73%
Légköri nyomás 1017 hPa
Látótávolság 10 km, vagy több
felhőtlen 1500 m magasságban, és nincs gomolyfelhõ

METAR: LTFH 230850Z 34006KT 310V020 CAVOK 20/15 Q1017 NOSIG

Idő: 12:14 (09:14 UTC)

Előrejelzés

A jelentés 1 órával és 34 perccel ezelõtt készült, 07:40 UTC
Az előrejelzés 23-én 09 óra UTC és 23-én 18 óra UTC között érvényes
Különbözõ irányokból fújó szél 2 kt
Látótávolság 10 km, vagy több
Szórványos felhőzet 3600 lábon
Szakadozott felhőzet 10000 lábon

TAF: LTFH 230740Z 2309/2318 VRB02KT 9999 SCT036 BKN100

Meteorológiai megfigyelések és előrejelzések több, mint 4000 repülőtéren (METAR és TAF jelentéseket).

A térképen piros és sárga pontok jelzik az elérhető meteorológiai állomásokat.

Mozgassa az egeret a pont fölött, hogy megjelenjen az állomás neve.

Azután kattintson az időjárási megfigyelések és előrejelzések megtekintéséhez.

A térkép megváltoztatása: kattintson a fekete keresztel jelölt zöld gombra ráközelítéshez, a vonallal jelölt zöld gombra távolításhoz, vagy a zöld nyilakra a szomszédos térképek eléréséhez.


METAR-TAF: